Terminal Aerodrome Forecast
Issued by NWS

Current Version | Previous Version | Text Only | Print | Product List | Glossary On
Versions: 1 2 3 4 5 6 7 8 9 10 11 12 13 14 15 16 17 18 19 20 21 22 23 24 25 26 27
000 FTUS41 KOKX 261700 TAFGON TAF KGON 261739Z 2618/2718 06016G22KT 2SM -SN BR BKN012 OVC030 FM262100 05019G27KT 3/4SM -SN BR BKN007 FM270100 03026G34KT 1/2SM SN FZFG VV005 FM270400 02030G40KT 1/4SM +SN FZFG VV003 FM271600 35030G40KT 1/2SM SN BLSN VV008=

USA.gov is the U.S. government's official web portal to all federal, state and local government web resources and services.